sensor_id;sensor_type;location;lat;lon;timestamp;P1;P2;P0
77699;PMS5003;66867;42.658;23.320;2023-04-16T00:00:00;10;10;
77699;PMS5003;66867;42.658;23.320;2023-04-16T00:01:00;9;9;
77699;PMS5003;66867;42.658;23.320;2023-04-16T00:02:00;9;8;
77699;PMS5003;66867;42.658;23.320;2023-04-16T00:03:00;8;8;
77699;PMS5003;66867;42.658;23.320;2023-04-16T00:04:00;6;6;
77699;PMS5003;66867;42.658;23.320;2023-04-16T00:05:00;9;7;
77699;PMS5003;66867;42.658;23.320;2023-04-16T00:06:00;7;7;
77699;PMS5003;66867;42.658;23.320;2023-04-16T00:07:00;8;8;
77699;PMS5003;66867;42.658;23.320;2023-04-16T00:08:00;8;8;
77699;PMS5003;66867;42.658;23.320;2023-04-16T00:09:00;7;7;
77699;PMS5003;66867;42.658;23.320;2023-04-16T00:10:00;6;6;
77699;PMS5003;66867;42.658;23.320;2023-04-16T00:11:00;9;8;
77699;PMS5003;66867;42.658;23.320;2023-04-16T00:12:00;5;5;
77699;PMS5003;66867;42.658;23.320;2023-04-16T00:13:00;7;7;
77699;PMS5003;66867;42.658;23.320;2023-04-16T00:14:00;6;6;
77699;PMS5003;66867;42.658;23.320;2023-04-16T00:15:00;6;6;
77699;PMS5003;66867;42.658;23.320;2023-04-16T00:16:00;6;6;
77699;PMS5003;66867;42.658;23.320;2023-04-16T00:17:00;6;6;
77699;PMS5003;66867;42.658;23.320;2023-04-16T00:18:00;6;6;
77699;PMS5003;66867;42.658;23.320;2023-04-16T00:19:00;6;6;
77699;PMS5003;66867;42.658;23.320;2023-04-16T00:20:00;7;6;
77699;PMS5003;66867;42.658;23.320;2023-04-16T00:21:00;7;6;
77699;PMS5003;66867;42.658;23.320;2023-04-16T00:22:00;6;6;
77699;PMS5003;66867;42.658;23.320;2023-04-16T00:23:00;7;7;
77699;PMS5003;66867;42.658;23.320;2023-04-16T00:24:00;8;8;
77699;PMS5003;66867;42.658;23.320;2023-04-16T00:25:00;7;6;
77699;PMS5003;66867;42.658;23.320;2023-04-16T00:26:00;5;5;
77699;PMS5003;66867;42.658;23.320;2023-04-16T00:27:00;8;8;
77699;PMS5003;66867;42.658;23.320;2023-04-16T00:28:00;9;9;
77699;PMS5003;66867;42.658;23.320;2023-04-16T00:29:00;7;7;
77699;PMS5003;66867;42.658;23.320;2023-04-16T00:30:00;6;6;
77699;PMS5003;66867;42.658;23.320;2023-04-16T00:31:00;9;8;
77699;PMS5003;66867;42.658;23.320;2023-04-16T00:32:00;7;7;
77699;PMS5003;66867;42.658;23.320;2023-04-16T00:33:00;6;6;
77699;PMS5003;66867;42.658;23.320;2023-04-16T00:34:00;7;7;
77699;PMS5003;66867;42.658;23.320;2023-04-16T00:35:00;8;8;
77699;PMS5003;66867;42.658;23.320;2023-04-16T00:36:00;8;8;
77699;PMS5003;66867;42.658;23.320;2023-04-16T00:37:00;8;8;
77699;PMS5003;66867;42.658;23.320;2023-04-16T00:38:00;7;7;
77699;PMS5003;66867;42.658;23.320;2023-04-16T00:39:00;10;8;
77699;PMS5003;66867;42.658;23.320;2023-04-16T00:40:00;6;6;
77699;PMS5003;66867;42.658;23.320;2023-04-16T00:41:00;9;9;
77699;PMS5003;66867;42.658;23.320;2023-04-16T00:42:00;9;9;
77699;PMS5003;66867;42.658;23.320;2023-04-16T00:43:00;8;8;
77699;PMS5003;66867;42.658;23.320;2023-04-16T00:44:00;9;9;
77699;PMS5003;66867;42.658;23.320;2023-04-16T00:45:00;13;13;
77699;PMS5003;66867;42.658;23.320;2023-04-16T00:46:03;15;14;
77699;PMS5003;66867;42.658;23.320;2023-04-16T00:47:01;14;14;
77699;PMS5003;66867;42.658;23.320;2023-04-16T00:48:00;21;19;
77699;PMS5003;66867;42.658;23.320;2023-04-16T00:49:01;13;13;
77699;PMS5003;66867;42.658;23.320;2023-04-16T00:50:02;11;10;
77699;PMS5003;66867;42.658;23.320;2023-04-16T00:51:02;12;12;
77699;PMS5003;66867;42.658;23.320;2023-04-16T00:52:00;11;10;
77699;PMS5003;66867;42.658;23.320;2023-04-16T00:53:00;12;12;
77699;PMS5003;66867;42.658;23.320;2023-04-16T00:54:00;11;10;
77699;PMS5003;66867;42.658;23.320;2023-04-16T00:55:00;13;13;
77699;PMS5003;66867;42.658;23.320;2023-04-16T00:56:02;12;12;
77699;PMS5003;66867;42.658;23.320;2023-04-16T00:57:00;10;10;
77699;PMS5003;66867;42.658;23.320;2023-04-16T00:58:00;10;10;
77699;PMS5003;66867;42.658;23.320;2023-04-16T00:59:00;9;9;
77699;PMS5003;66867;42.658;23.320;2023-04-16T01:00:01;11;11;
77699;PMS5003;66867;42.658;23.320;2023-04-16T01:01:00;11;11;
77699;PMS5003;66867;42.658;23.320;2023-04-16T01:02:00;12;12;
77699;PMS5003;66867;42.658;23.320;2023-04-16T01:03:00;14;14;
77699;PMS5003;66867;42.658;23.320;2023-04-16T01:04:00;13;12;
77699;PMS5003;66867;42.658;23.320;2023-04-16T01:05:01;14;12;
77699;PMS5003;66867;42.658;23.320;2023-04-16T01:06:00;13;12;
77699;PMS5003;66867;42.658;23.320;2023-04-16T01:07:00;13;13;
77699;PMS5003;66867;42.658;23.320;2023-04-16T01:08:00;13;13;
77699;PMS5003;66867;42.658;23.320;2023-04-16T01:09:00;14;14;
77699;PMS5003;66867;42.658;23.320;2023-04-16T01:10:00;14;13;
77699;PMS5003;66867;42.658;23.320;2023-04-16T01:11:01;14;13;
77699;PMS5003;66867;42.658;23.320;2023-04-16T01:12:00;13;12;
77699;PMS5003;66867;42.658;23.320;2023-04-16T01:13:00;19;19;
77699;PMS5003;66867;42.658;23.320;2023-04-16T01:14:00;16;16;
77699;PMS5003;66867;42.658;23.320;2023-04-16T01:15:00;13;12;
77699;PMS5003;66867;42.658;23.320;2023-04-16T01:16:00;14;13;
77699;PMS5003;66867;42.658;23.320;2023-04-16T01:17:01;14;14;
77699;PMS5003;66867;42.658;23.320;2023-04-16T01:18:00;16;13;
77699;PMS5003;66867;42.658;23.320;2023-04-16T01:19:00;12;12;
77699;PMS5003;66867;42.658;23.320;2023-04-16T01:20:00;14;13;
77699;PMS5003;66867;42.658;23.320;2023-04-16T01:21:00;17;16;
77699;PMS5003;66867;42.658;23.320;2023-04-16T01:22:00;18;17;
77699;PMS5003;66867;42.658;23.320;2023-04-16T01:23:00;14;13;
77699;PMS5003;66867;42.658;23.320;2023-04-16T01:24:04;10;10;
77699;PMS5003;66867;42.658;23.320;2023-04-16T01:25:00;12;11;
77699;PMS5003;66867;42.658;23.320;2023-04-16T01:26:00;9;9;
77699;PMS5003;66867;42.658;23.320;2023-04-16T01:27:00;10;10;
77699;PMS5003;66867;42.658;23.320;2023-04-16T01:28:00;9;9;
77699;PMS5003;66867;42.658;23.320;2023-04-16T01:29:01;10;9;
77699;PMS5003;66867;42.658;23.320;2023-04-16T01:30:00;11;11;
77699;PMS5003;66867;42.658;23.320;2023-04-16T01:31:00;11;11;
77699;PMS5003;66867;42.658;23.320;2023-04-16T01:32:00;14;14;
77699;PMS5003;66867;42.658;23.320;2023-04-16T01:33:00;17;17;
77699;PMS5003;66867;42.658;23.320;2023-04-16T01:34:00;16;15;
77699;PMS5003;66867;42.658;23.320;2023-04-16T01:35:00;18;16;
77699;PMS5003;66867;42.658;23.320;2023-04-16T01:36:00;15;15;
77699;PMS5003;66867;42.658;23.320;2023-04-16T01:37:00;17;17;
77699;PMS5003;66867;42.658;23.320;2023-04-16T01:38:00;15;12;
77699;PMS5003;66867;42.658;23.320;2023-04-16T01:39:00;13;13;
77699;PMS5003;66867;42.658;23.320;2023-04-16T01:40:00;16;15;
77699;PMS5003;66867;42.658;23.320;2023-04-16T01:41:00;17;17;
77699;PMS5003;66867;42.658;23.320;2023-04-16T01:42:00;18;17;
77699;PMS5003;66867;42.658;23.320;2023-04-16T01:43:00;15;15;
77699;PMS5003;66867;42.658;23.320;2023-04-16T01:44:00;18;18;
77699;PMS5003;66867;42.658;23.320;2023-04-16T01:45:00;14;14;
77699;PMS5003;66867;42.658;23.320;2023-04-16T01:46:12;15;15;
77699;PMS5003;66867;42.658;23.320;2023-04-16T01:47:00;17;16;
77699;PMS5003;66867;42.658;23.320;2023-04-16T01:48:00;16;15;
77699;PMS5003;66867;42.658;23.320;2023-04-16T01:49:01;14;12;
77699;PMS5003;66867;42.658;23.320;2023-04-16T01:50:01;14;14;
77699;PMS5003;66867;42.658;23.320;2023-04-16T01:51:00;16;16;
77699;PMS5003;66867;42.658;23.320;2023-04-16T01:52:00;15;15;
77699;PMS5003;66867;42.658;23.320;2023-04-16T01:53:00;15;14;
77699;PMS5003;66867;42.658;23.320;2023-04-16T01:54:00;16;16;
77699;PMS5003;66867;42.658;23.320;2023-04-16T01:55:00;15;14;
77699;PMS5003;66867;42.658;23.320;2023-04-16T01:56:00;13;13;
77699;PMS5003;66867;42.658;23.320;2023-04-16T01:57:00;16;16;
77699;PMS5003;66867;42.658;23.320;2023-04-16T01:58:00;15;15;
77699;PMS5003;66867;42.658;23.320;2023-04-16T01:59:00;18;17;
77699;PMS5003;66867;42.658;23.320;2023-04-16T02:00:00;15;15;
77699;PMS5003;66867;42.658;23.320;2023-04-16T02:01:00;16;16;
77699;PMS5003;66867;42.658;23.320;2023-04-16T02:02:06;13;13;
77699;PMS5003;66867;42.658;23.320;2023-04-16T02:03:00;17;15;
77699;PMS5003;66867;42.658;23.320;2023-04-16T02:04:00;18;18;
77699;PMS5003;66867;42.658;23.320;2023-04-16T02:05:00;16;15;
77699;PMS5003;66867;42.658;23.320;2023-04-16T02:06:00;15;15;
77699;PMS5003;66867;42.658;23.320;2023-04-16T02:07:00;16;16;
77699;PMS5003;66867;42.658;23.320;2023-04-16T02:08:00;17;17;
77699;PMS5003;66867;42.658;23.320;2023-04-16T02:09:00;16;16;
77699;PMS5003;66867;42.658;23.320;2023-04-16T02:10:00;16;16;
77699;PMS5003;66867;42.658;23.320;2023-04-16T02:11:00;16;15;
77699;PMS5003;66867;42.658;23.320;2023-04-16T02:12:00;14;13;
77699;PMS5003;66867;42.658;23.320;2023-04-16T02:13:00;15;14;
77699;PMS5003;66867;42.658;23.320;2023-04-16T02:14:00;14;14;
77699;PMS5003;66867;42.658;23.320;2023-04-16T02:15:00;11;11;
77699;PMS5003;66867;42.658;23.320;2023-04-16T02:16:00;14;14;
77699;PMS5003;66867;42.658;23.320;2023-04-16T02:17:00;12;12;
77699;PMS5003;66867;42.658;23.320;2023-04-16T02:18:00;17;16;
77699;PMS5003;66867;42.658;23.320;2023-04-16T02:19:00;16;15;
77699;PMS5003;66867;42.658;23.320;2023-04-16T02:20:00;13;13;
77699;PMS5003;66867;42.658;23.320;2023-04-16T02:21:00;15;14;
77699;PMS5003;66867;42.658;23.320;2023-04-16T02:22:00;14;14;
77699;PMS5003;66867;42.658;23.320;2023-04-16T02:23:00;13;13;
77699;PMS5003;66867;42.658;23.320;2023-04-16T02:24:00;16;14;
77699;PMS5003;66867;42.658;23.320;2023-04-16T02:25:00;13;13;
77699;PMS5003;66867;42.658;23.320;2023-04-16T02:26:01;15;15;
77699;PMS5003;66867;42.658;23.320;2023-04-16T02:27:00;14;13;
77699;PMS5003;66867;42.658;23.320;2023-04-16T02:28:00;18;17;
77699;PMS5003;66867;42.658;23.320;2023-04-16T02:29:00;14;14;
77699;PMS5003;66867;42.658;23.320;2023-04-16T02:30:00;13;13;
77699;PMS5003;66867;42.658;23.320;2023-04-16T02:31:00;14;13;
77699;PMS5003;66867;42.658;23.320;2023-04-16T02:32:00;14;13;
77699;PMS5003;66867;42.658;23.320;2023-04-16T02:33:00;15;14;
77699;PMS5003;66867;42.658;23.320;2023-04-16T02:34:00;16;15;
77699;PMS5003;66867;42.658;23.320;2023-04-16T02:35:00;17;15;
77699;PMS5003;66867;42.658;23.320;2023-04-16T02:36:00;11;11;
77699;PMS5003;66867;42.658;23.320;2023-04-16T02:37:00;18;17;
77699;PMS5003;66867;42.658;23.320;2023-04-16T02:38:01;14;14;
77699;PMS5003;66867;42.658;23.320;2023-04-16T02:39:00;16;16;
77699;PMS5003;66867;42.658;23.320;2023-04-16T02:40:00;13;13;
77699;PMS5003;66867;42.658;23.320;2023-04-16T02:41:00;16;13;
77699;PMS5003;66867;42.658;23.320;2023-04-16T02:42:00;13;12;
77699;PMS5003;66867;42.658;23.320;2023-04-16T02:43:00;17;15;
77699;PMS5003;66867;42.658;23.320;2023-04-16T02:44:00;14;14;
77699;PMS5003;66867;42.658;23.320;2023-04-16T02:45:00;16;16;
77699;PMS5003;66867;42.658;23.320;2023-04-16T02:46:00;17;15;
77699;PMS5003;66867;42.658;23.320;2023-04-16T02:47:00;16;14;
77699;PMS5003;66867;42.658;23.320;2023-04-16T02:48:00;14;14;
77699;PMS5003;66867;42.658;23.320;2023-04-16T02:49:00;15;15;
77699;PMS5003;66867;42.658;23.320;2023-04-16T02:50:00;15;14;
77699;PMS5003;66867;42.658;23.320;2023-04-16T02:51:00;13;12;
77699;PMS5003;66867;42.658;23.320;2023-04-16T02:52:00;12;12;
77699;PMS5003;66867;42.658;23.320;2023-04-16T02:53:00;12;12;
77699;PMS5003;66867;42.658;23.320;2023-04-16T02:54:00;10;8;
77699;PMS5003;66867;42.658;23.320;2023-04-16T02:55:00;10;10;
77699;PMS5003;66867;42.658;23.320;2023-04-16T02:56:00;8;8;
77699;PMS5003;66867;42.658;23.320;2023-04-16T02:57:00;9;9;
77699;PMS5003;66867;42.658;23.320;2023-04-16T02:58:00;8;8;
77699;PMS5003;66867;42.658;23.320;2023-04-16T02:59:00;8;8;
77699;PMS5003;66867;42.658;23.320;2023-04-16T03:00:00;8;7;
77699;PMS5003;66867;42.658;23.320;2023-04-16T03:01:00;7;7;
77699;PMS5003;66867;42.658;23.320;2023-04-16T03:02:00;8;8;
77699;PMS5003;66867;42.658;23.320;2023-04-16T03:03:00;7;7;
77699;PMS5003;66867;42.658;23.320;2023-04-16T03:04:00;8;8;
77699;PMS5003;66867;42.658;23.320;2023-04-16T03:05:00;7;7;
77699;PMS5003;66867;42.658;23.320;2023-04-16T03:06:00;7;7;
77699;PMS5003;66867;42.658;23.320;2023-04-16T03:07:00;10;10;
77699;PMS5003;66867;42.658;23.320;2023-04-16T03:08:00;7;7;
77699;PMS5003;66867;42.658;23.320;2023-04-16T03:09:00;8;8;
77699;PMS5003;66867;42.658;23.320;2023-04-16T03:10:00;9;8;
77699;PMS5003;66867;42.658;23.320;2023-04-16T03:11:00;9;9;
77699;PMS5003;66867;42.658;23.320;2023-04-16T03:12:00;8;7;
77699;PMS5003;66867;42.658;23.320;2023-04-16T03:13:00;6;6;
77699;PMS5003;66867;42.658;23.320;2023-04-16T03:14:00;10;9;
77699;PMS5003;66867;42.658;23.320;2023-04-16T03:15:00;7;7;
77699;PMS5003;66867;42.658;23.320;2023-04-16T03:16:00;6;6;
77699;PMS5003;66867;42.658;23.320;2023-04-16T03:17:00;9;8;
77699;PMS5003;66867;42.658;23.320;2023-04-16T03:18:00;10;9;
77699;PMS5003;66867;42.658;23.320;2023-04-16T03:19:00;9;9;
77699;PMS5003;66867;42.658;23.320;2023-04-16T03:20:00;8;7;
77699;PMS5003;66867;42.658;23.320;2023-04-16T03:21:00;10;10;
77699;PMS5003;66867;42.658;23.320;2023-04-16T03:22:00;6;6;
77699;PMS5003;66867;42.658;23.320;2023-04-16T03:23:00;8;8;
77699;PMS5003;66867;42.658;23.320;2023-04-16T03:24:00;9;8;
77699;PMS5003;66867;42.658;23.320;2023-04-16T03:25:00;10;10;
77699;PMS5003;66867;42.658;23.320;2023-04-16T03:26:00;9;9;
77699;PMS5003;66867;42.658;23.320;2023-04-16T03:27:00;8;8;
77699;PMS5003;66867;42.658;23.320;2023-04-16T03:28:00;8;8;
77699;PMS5003;66867;42.658;23.320;2023-04-16T03:29:00;8;8;
77699;PMS5003;66867;42.658;23.320;2023-04-16T03:30:01;13;12;
77699;PMS5003;66867;42.658;23.320;2023-04-16T03:31:00;7;7;
77699;PMS5003;66867;42.658;23.320;2023-04-16T03:32:00;10;9;
77699;PMS5003;66867;42.658;23.320;2023-04-16T03:33:00;8;8;
77699;PMS5003;66867;42.658;23.320;2023-04-16T03:34:00;9;9;
77699;PMS5003;66867;42.658;23.320;2023-04-16T03:35:00;8;8;
77699;PMS5003;66867;42.658;23.320;2023-04-16T03:36:00;7;7;
77699;PMS5003;66867;42.658;23.320;2023-04-16T03:37:00;7;7;
77699;PMS5003;66867;42.658;23.320;2023-04-16T03:38:00;9;8;
77699;PMS5003;66867;42.658;23.320;2023-04-16T03:39:00;9;8;
77699;PMS5003;66867;42.658;23.320;2023-04-16T03:40:00;9;9;
77699;PMS5003;66867;42.658;23.320;2023-04-16T03:41:00;10;9;
77699;PMS5003;66867;42.658;23.320;2023-04-16T03:42:00;9;8;
77699;PMS5003;66867;42.658;23.320;2023-04-16T03:43:00;12;12;
77699;PMS5003;66867;42.658;23.320;2023-04-16T03:44:00;8;8;
77699;PMS5003;66867;42.658;23.320;2023-04-16T03:45:00;12;10;
77699;PMS5003;66867;42.658;23.320;2023-04-16T03:46:00;12;9;
77699;PMS5003;66867;42.658;23.320;2023-04-16T03:47:00;10;10;
77699;PMS5003;66867;42.658;23.320;2023-04-16T03:48:00;12;10;
77699;PMS5003;66867;42.658;23.320;2023-04-16T03:49:00;10;10;
77699;PMS5003;66867;42.658;23.320;2023-04-16T03:50:00;9;9;
77699;PMS5003;66867;42.658;23.320;2023-04-16T03:51:00;10;10;
77699;PMS5003;66867;42.658;23.320;2023-04-16T03:52:00;9;9;
77699;PMS5003;66867;42.658;23.320;2023-04-16T03:53:00;12;12;
77699;PMS5003;66867;42.658;23.320;2023-04-16T03:54:00;9;9;
77699;PMS5003;66867;42.658;23.320;2023-04-16T03:55:00;10;9;
77699;PMS5003;66867;42.658;23.320;2023-04-16T03:56:00;15;13;
77699;PMS5003;66867;42.658;23.320;2023-04-16T03:57:00;12;12;
77699;PMS5003;66867;42.658;23.320;2023-04-16T03:58:00;13;13;
77699;PMS5003;66867;42.658;23.320;2023-04-16T03:59:00;10;10;
77699;PMS5003;66867;42.658;23.320;2023-04-16T04:00:00;9;9;
77699;PMS5003;66867;42.658;23.320;2023-04-16T04:01:00;12;12;
77699;PMS5003;66867;42.658;23.320;2023-04-16T04:02:00;9;9;
77699;PMS5003;66867;42.658;23.320;2023-04-16T04:03:00;10;10;
77699;PMS5003;66867;42.658;23.320;2023-04-16T04:04:00;9;9;
77699;PMS5003;66867;42.658;23.320;2023-04-16T04:05:00;12;12;
77699;PMS5003;66867;42.658;23.320;2023-04-16T04:06:00;12;12;
77699;PMS5003;66867;42.658;23.320;2023-04-16T04:07:00;12;10;
77699;PMS5003;66867;42.658;23.320;2023-04-16T04:08:00;13;12;
77699;PMS5003;66867;42.658;23.320;2023-04-16T04:09:01;14;14;
77699;PMS5003;66867;42.658;23.320;2023-04-16T04:10:00;13;13;
77699;PMS5003;66867;42.658;23.320;2023-04-16T04:11:00;14;13;
77699;PMS5003;66867;42.658;23.320;2023-04-16T04:12:00;16;15;
77699;PMS5003;66867;42.658;23.320;2023-04-16T04:13:02;15;15;
77699;PMS5003;66867;42.658;23.320;2023-04-16T04:14:00;16;15;
77699;PMS5003;66867;42.658;23.320;2023-04-16T04:15:00;14;14;
77699;PMS5003;66867;42.658;23.320;2023-04-16T04:16:00;12;12;
77699;PMS5003;66867;42.658;23.320;2023-04-16T04:17:00;15;13;
77699;PMS5003;66867;42.658;23.320;2023-04-16T04:18:00;17;14;
77699;PMS5003;66867;42.658;23.320;2023-04-16T04:19:00;14;13;
77699;PMS5003;66867;42.658;23.320;2023-04-16T04:20:00;16;13;
77699;PMS5003;66867;42.658;23.320;2023-04-16T04:21:05;13;13;
77699;PMS5003;66867;42.658;23.320;2023-04-16T04:22:00;14;14;
77699;PMS5003;66867;42.658;23.320;2023-04-16T04:23:00;17;14;
77699;PMS5003;66867;42.658;23.320;2023-04-16T04:24:00;15;14;
77699;PMS5003;66867;42.658;23.320;2023-04-16T04:25:00;15;15;
77699;PMS5003;66867;42.658;23.320;2023-04-16T04:26:00;15;14;
77699;PMS5003;66867;42.658;23.320;2023-04-16T04:27:00;14;14;
77699;PMS5003;66867;42.658;23.320;2023-04-16T04:28:00;15;15;
77699;PMS5003;66867;42.658;23.320;2023-04-16T04:29:00;15;14;
77699;PMS5003;66867;42.658;23.320;2023-04-16T04:30:00;15;15;
77699;PMS5003;66867;42.658;23.320;2023-04-16T04:31:00;10;10;
77699;PMS5003;66867;42.658;23.320;2023-04-16T04:32:00;14;13;
77699;PMS5003;66867;42.658;23.320;2023-04-16T04:33:00;13;13;
77699;PMS5003;66867;42.658;23.320;2023-04-16T04:34:00;13;11;
77699;PMS5003;66867;42.658;23.320;2023-04-16T04:35:02;16;14;
77699;PMS5003;66867;42.658;23.320;2023-04-16T04:36:00;18;16;
77699;PMS5003;66867;42.658;23.320;2023-04-16T04:37:00;15;14;
77699;PMS5003;66867;42.658;23.320;2023-04-16T04:38:01;12;12;
77699;PMS5003;66867;42.658;23.320;2023-04-16T04:39:00;13;13;
77699;PMS5003;66867;42.658;23.320;2023-04-16T04:40:00;14;14;
77699;PMS5003;66867;42.658;23.320;2023-04-16T04:41:00;16;15;
77699;PMS5003;66867;42.658;23.320;2023-04-16T04:42:00;14;14;
77699;PMS5003;66867;42.658;23.320;2023-04-16T04:43:00;15;14;
77699;PMS5003;66867;42.658;23.320;2023-04-16T04:44:00;18;16;
77699;PMS5003;66867;42.658;23.320;2023-04-16T04:45:00;12;12;
77699;PMS5003;66867;42.658;23.320;2023-04-16T04:46:00;11;10;
77699;PMS5003;66867;42.658;23.320;2023-04-16T04:47:00;14;12;
77699;PMS5003;66867;42.658;23.320;2023-04-16T04:48:00;13;11;
77699;PMS5003;66867;42.658;23.320;2023-04-16T04:49:00;14;14;
77699;PMS5003;66867;42.658;23.320;2023-04-16T04:50:00;13;13;
77699;PMS5003;66867;42.658;23.320;2023-04-16T04:51:00;13;13;
77699;PMS5003;66867;42.658;23.320;2023-04-16T04:52:00;14;14;
77699;PMS5003;66867;42.658;23.320;2023-04-16T04:53:00;15;14;
77699;PMS5003;66867;42.658;23.320;2023-04-16T04:54:00;18;16;
77699;PMS5003;66867;42.658;23.320;2023-04-16T04:55:00;15;15;
77699;PMS5003;66867;42.658;23.320;2023-04-16T04:56:00;15;14;
77699;PMS5003;66867;42.658;23.320;2023-04-16T04:57:00;14;13;
77699;PMS5003;66867;42.658;23.320;2023-04-16T04:58:01;13;13;
77699;PMS5003;66867;42.658;23.320;2023-04-16T04:59:00;13;13;
77699;PMS5003;66867;42.658;23.320;2023-04-16T05:00:00;16;16;
77699;PMS5003;66867;42.658;23.320;2023-04-16T05:01:00;15;14;
77699;PMS5003;66867;42.658;23.320;2023-04-16T05:02:00;19;16;
77699;PMS5003;66867;42.658;23.320;2023-04-16T05:03:02;16;16;
77699;PMS5003;66867;42.658;23.320;2023-04-16T05:04:00;17;17;
77699;PMS5003;66867;42.658;23.320;2023-04-16T05:05:00;19;19;
77699;PMS5003;66867;42.658;23.320;2023-04-16T05:06:00;15;15;
77699;PMS5003;66867;42.658;23.320;2023-04-16T05:07:00;16;15;
77699;PMS5003;66867;42.658;23.320;2023-04-16T05:08:00;20;20;
77699;PMS5003;66867;42.658;23.320;2023-04-16T05:09:00;15;15;
77699;PMS5003;66867;42.658;23.320;2023-04-16T05:10:00;18;16;
77699;PMS5003;66867;42.658;23.320;2023-04-16T05:11:00;19;18;
77699;PMS5003;66867;42.658;23.320;2023-04-16T05:12:00;17;17;
77699;PMS5003;66867;42.658;23.320;2023-04-16T05:13:00;17;16;
77699;PMS5003;66867;42.658;23.320;2023-04-16T05:14:00;20;20;
77699;PMS5003;66867;42.658;23.320;2023-04-16T05:15:00;20;19;
77699;PMS5003;66867;42.658;23.320;2023-04-16T05:16:00;17;17;
77699;PMS5003;66867;42.658;23.320;2023-04-16T05:17:00;19;17;
77699;PMS5003;66867;42.658;23.320;2023-04-16T05:18:00;18;18;
77699;PMS5003;66867;42.658;23.320;2023-04-16T05:19:00;19;19;
77699;PMS5003;66867;42.658;23.320;2023-04-16T05:20:00;21;20;
77699;PMS5003;66867;42.658;23.320;2023-04-16T05:21:00;19;17;
77699;PMS5003;66867;42.658;23.320;2023-04-16T05:22:00;24;21;
77699;PMS5003;66867;42.658;23.320;2023-04-16T05:23:00;18;18;
77699;PMS5003;66867;42.658;23.320;2023-04-16T05:24:00;19;19;
77699;PMS5003;66867;42.658;23.320;2023-04-16T05:25:00;17;16;
77699;PMS5003;66867;42.658;23.320;2023-04-16T05:26:00;19;18;
77699;PMS5003;66867;42.658;23.320;2023-04-16T05:27:00;24;24;
77699;PMS5003;66867;42.658;23.320;2023-04-16T05:28:00;21;21;
77699;PMS5003;66867;42.658;23.320;2023-04-16T05:29:00;21;20;
77699;PMS5003;66867;42.658;23.320;2023-04-16T05:30:00;21;21;
77699;PMS5003;66867;42.658;23.320;2023-04-16T05:31:00;22;22;
77699;PMS5003;66867;42.658;23.320;2023-04-16T05:32:00;23;22;
77699;PMS5003;66867;42.658;23.320;2023-04-16T05:33:00;35;31;
77699;PMS5003;66867;42.658;23.320;2023-04-16T05:34:00;20;18;
77699;PMS5003;66867;42.658;23.320;2023-04-16T05:35:00;18;18;
77699;PMS5003;66867;42.658;23.320;2023-04-16T05:36:00;18;18;
77699;PMS5003;66867;42.658;23.320;2023-04-16T05:37:00;18;17;
77699;PMS5003;66867;42.658;23.320;2023-04-16T05:38:00;16;16;
77699;PMS5003;66867;42.658;23.320;2023-04-16T05:39:00;18;18;
77699;PMS5003;66867;42.658;23.320;2023-04-16T05:40:00;17;16;
77699;PMS5003;66867;42.658;23.320;2023-04-16T05:41:00;12;11;
77699;PMS5003;66867;42.658;23.320;2023-04-16T05:42:00;11;11;
77699;PMS5003;66867;42.658;23.320;2023-04-16T05:43:00;16;15;
77699;PMS5003;66867;42.658;23.320;2023-04-16T05:44:00;20;18;
77699;PMS5003;66867;42.658;23.320;2023-04-16T05:45:01;15;15;
77699;PMS5003;66867;42.658;23.320;2023-04-16T05:46:00;14;14;
77699;PMS5003;66867;42.658;23.320;2023-04-16T05:47:00;16;16;
77699;PMS5003;66867;42.658;23.320;2023-04-16T05:48:00;18;17;
77699;PMS5003;66867;42.658;23.320;2023-04-16T05:49:00;19;16;
77699;PMS5003;66867;42.658;23.320;2023-04-16T05:50:00;16;15;
77699;PMS5003;66867;42.658;23.320;2023-04-16T05:51:00;19;19;
77699;PMS5003;66867;42.658;23.320;2023-04-16T05:52:00;18;18;
77699;PMS5003;66867;42.658;23.320;2023-04-16T05:53:01;22;21;
77699;PMS5003;66867;42.658;23.320;2023-04-16T05:54:00;17;17;
77699;PMS5003;66867;42.658;23.320;2023-04-16T05:55:00;19;19;
77699;PMS5003;66867;42.658;23.320;2023-04-16T05:56:00;18;18;
77699;PMS5003;66867;42.658;23.320;2023-04-16T05:57:00;17;16;
77699;PMS5003;66867;42.658;23.320;2023-04-16T05:58:00;19;18;
77699;PMS5003;66867;42.658;23.320;2023-04-16T05:59:00;18;17;
77699;PMS5003;66867;42.658;23.320;2023-04-16T06:00:00;18;17;
77699;PMS5003;66867;42.658;23.320;2023-04-16T06:01:00;16;16;
77699;PMS5003;66867;42.658;23.320;2023-04-16T06:02:00;18;17;
77699;PMS5003;66867;42.658;23.320;2023-04-16T06:03:01;18;17;
77699;PMS5003;66867;42.658;23.320;2023-04-16T06:04:00;21;20;
77699;PMS5003;66867;42.658;23.320;2023-04-16T06:05:00;17;17;
77699;PMS5003;66867;42.658;23.320;2023-04-16T06:06:00;21;21;
77699;PMS5003;66867;42.658;23.320;2023-04-16T06:07:00;19;18;
77699;PMS5003;66867;42.658;23.320;2023-04-16T06:08:00;17;17;
77699;PMS5003;66867;42.658;23.320;2023-04-16T06:09:00;19;19;
77699;PMS5003;66867;42.658;23.320;2023-04-16T06:10:00;18;17;
77699;PMS5003;66867;42.658;23.320;2023-04-16T06:11:00;17;17;
77699;PMS5003;66867;42.658;23.320;2023-04-16T06:12:00;19;19;
77699;PMS5003;66867;42.658;23.320;2023-04-16T06:13:00;15;15;
77699;PMS5003;66867;42.658;23.320;2023-04-16T06:14:00;18;17;
77699;PMS5003;66867;42.658;23.320;2023-04-16T06:15:00;18;17;
77699;PMS5003;66867;42.658;23.320;2023-04-16T06:16:00;18;16;
77699;PMS5003;66867;42.658;23.320;2023-04-16T06:17:00;23;23;
77699;PMS5003;66867;42.658;23.320;2023-04-16T06:18:00;19;18;
77699;PMS5003;66867;42.658;23.320;2023-04-16T06:19:00;18;18;
77699;PMS5003;66867;42.658;23.320;2023-04-16T06:20:00;15;15;
77699;PMS5003;66867;42.658;23.320;2023-04-16T06:21:00;20;19;
77699;PMS5003;66867;42.658;23.320;2023-04-16T06:22:00;22;21;
77699;PMS5003;66867;42.658;23.320;2023-04-16T06:23:00;20;20;
77699;PMS5003;66867;42.658;23.320;2023-04-16T06:24:00;17;17;
77699;PMS5003;66867;42.658;23.320;2023-04-16T06:25:00;18;18;
77699;PMS5003;66867;42.658;23.320;2023-04-16T06:26:00;20;20;
77699;PMS5003;66867;42.658;23.320;2023-04-16T06:27:00;22;21;
77699;PMS5003;66867;42.658;23.320;2023-04-16T06:28:00;22;20;
77699;PMS5003;66867;42.658;23.320;2023-04-16T06:29:00;21;18;
77699;PMS5003;66867;42.658;23.320;2023-04-16T06:30:00;18;18;
77699;PMS5003;66867;42.658;23.320;2023-04-16T06:31:00;21;21;
77699;PMS5003;66867;42.658;23.320;2023-04-16T06:32:00;18;18;
77699;PMS5003;66867;42.658;23.320;2023-04-16T06:33:00;18;18;
77699;PMS5003;66867;42.658;23.320;2023-04-16T06:34:00;22;21;